Portada
METAR-TAF:

METAR-TAF

Aeroports :

Pattaya-Rayong, Tailàndia

latitud: 12-38N, longitud: 101-21E, altitud: 3 m

Observació

L'informe es va fer fa 37 minuts, a les 18:30 UTC
Vent 5 kt del Sud/Sud-Oest
Temperatura 30°C
Humitat 70%
Pressió 1010 hPa
Visibilitat 10 km o més
Escasses núvols a una alçada de 2000 ft

METAR: VTBU 011830Z 21005KT 9999 FEW020 30/24 Q1010 NOSIG

Hora: 02:07 (19:07 UTC)

Pronòstic

L'informe es va fer fa 2 hores i 7 minuts, a les 17:00 UTC
Pronòstic vàlid del 01 a les 18 UTC al 02 a les 18 UTC
Vent 8 kt del Sud/Sud-Oest
Visibilitat 10 km o més
Escasses núvols a una alçada de 2000 ft
Temporalment
l' 01 a les 20 UTC al 02 a les 01 UTC
Vent 12 kt amb direcció variable
Visibilitat: 5000 m
Escasses núvols a una alçada de 1800 ft, Cumulonimbus.
Núvols disperses a una alçada de 3000 ft
Cel ennuvolat a una alçada de 10000 ft
tempesta, pluja

TAF: VTBU 011700Z 0118/0218 20008KT 9999 FEW020 TEMPO 0120/0201 VRB12KT 5000 TSRA FEW018CB SCT030 BKN100

Observacions i pronòstics meteorològics de més de 4000 aeroports (METAR i TAF).

Les estacions disponibles són els punts grocs i vermells al mapa.

Posi el ratolí al punt desitjat per veure el nom de l'estació.

Feu clic per veure les observacions i els pronòstics meteorològics.

Per canviar el mapa: feu clic els botons verds amb una creu de color negre per apropar; al botó verd amb un guió per allunyar la imatge; o en les fletxes verdes per a mapes adjacents.


METAR-TAF: